createdAt,value
2023-03-12T00:02:25.713Z,99630.16
2023-03-12T00:04:54.999Z,99649.88
2023-03-12T00:07:22.789Z,99653.38
2023-03-12T00:09:50.590Z,99668.25
2023-03-12T00:12:18.380Z,99667.69
2023-03-12T00:14:46.300Z,99667.75
2023-03-12T00:17:14.004Z,99673.25
2023-03-12T00:19:41.839Z,99666.88
2023-03-12T00:22:11.138Z,99653.72
2023-03-12T00:24:39.249Z,99662.13
2023-03-12T00:27:08.305Z,99667.03
2023-03-12T00:29:36.854Z,99656.81
2023-03-12T00:32:04.654Z,99657.41
2023-03-12T00:34:32.555Z,99671.97
2023-03-12T00:37:00.242Z,99666.63
2023-03-12T00:39:29.750Z,99673.25
2023-03-12T00:41:57.562Z,99664.31
2023-03-12T00:44:25.421Z,99651.38
2023-03-12T00:46:53.379Z,99654.44
2023-03-12T00:49:21.250Z,99662.13
2023-03-12T00:51:49.291Z,99645.59
2023-03-12T00:54:17.180Z,99639.06
2023-03-12T00:56:47.245Z,99634.31
2023-03-12T00:59:15.757Z,99631.78
2023-03-12T01:01:44.039Z,99624.38
2023-03-12T01:04:12.076Z,99635.22
2023-03-12T01:06:40.113Z,99636.25
2023-03-12T01:09:10.197Z,99634.94
2023-03-12T01:11:39.665Z,99627.69
2023-03-12T01:14:10.414Z,99625.59
2023-03-12T01:16:38.241Z,99609.34
2023-03-12T01:19:06.154Z,99619.81
2023-03-12T01:21:34.064Z,99609.75
2023-03-12T01:24:01.918Z,99611.91
2023-03-12T01:26:29.830Z,99613.00
2023-03-12T01:28:57.610Z,99602.56
2023-03-12T01:31:26.966Z,99603.72
2023-03-12T01:33:55.314Z,99610.94
2023-03-12T01:36:25.843Z,99620.56
2023-03-12T01:38:55.063Z,99617.31
2023-03-12T01:41:24.476Z,99607.88
2023-03-12T01:43:52.823Z,99598.69
2023-03-12T01:46:33.830Z,99616.53
2023-03-12T01:49:08.197Z,99640.88
2023-03-12T01:51:40.435Z,99660.59
2023-03-12T01:54:12.789Z,99667.50
2023-03-12T01:56:41.527Z,99716.97
2023-03-12T01:59:14.935Z,99751.25
2023-03-12T02:01:45.427Z,99762.84
2023-03-12T02:04:14.677Z,99785.41
2023-03-12T02:06:50.273Z,99807.41
2023-03-12T02:09:20.474Z,99812.44
2023-03-12T02:11:50.027Z,99829.38
2023-03-12T02:14:18.242Z,99858.53
2023-03-12T02:16:47.892Z,99916.41
2023-03-12T02:19:24.424Z,99892.50
2023-03-12T02:21:52.363Z,99876.66
2023-03-12T02:24:31.631Z,99830.03
2023-03-12T02:27:01.119Z,99849.69
2023-03-12T02:29:33.965Z,99847.22
2023-03-12T02:32:04.327Z,99878.56
2023-03-12T02:34:32.373Z,99903.97
2023-03-12T02:37:00.222Z,99921.75
2023-03-12T02:39:29.055Z,99962.44
2023-03-12T02:41:58.781Z,99941.28
2023-03-12T02:44:31.199Z,99942.09
2023-03-12T02:47:02.043Z,99953.97
2023-03-12T02:49:32.620Z,99941.03
2023-03-12T02:52:01.873Z,99930.25
2023-03-12T02:54:30.364Z,99944.84
2023-03-12T02:56:58.695Z,99930.13
2023-03-12T02:59:29.174Z,99925.91
2023-03-12T03:02:00.529Z,99921.47
2023-03-12T03:04:29.979Z,99929.63
2023-03-12T03:06:58.531Z,99927.53
2023-03-12T03:09:26.656Z,99933.59
2023-03-12T03:11:54.780Z,99944.81
2023-03-12T03:14:24.363Z,99938.53
2023-03-12T03:16:54.896Z,99942.69
2023-03-12T03:19:24.520Z,99940.59
2023-03-12T03:21:52.568Z,99918.41
2023-03-12T03:24:21.013Z,99923.69
2023-03-12T03:26:49.021Z,99936.31
2023-03-12T03:29:17.203Z,99919.22
2023-03-12T03:31:45.513Z,99921.19
2023-03-12T03:34:14.837Z,99927.59
2023-03-12T03:36:42.691Z,99941.66
2023-03-12T03:39:14.988Z,99959.13
2023-03-12T03:41:43.117Z,99962.84
2023-03-12T03:44:11.383Z,99961.47
2023-03-12T03:46:40.536Z,99965.25
2023-03-12T03:49:11.553Z,99963.47
2023-03-12T03:51:43.320Z,99985.41
2023-03-12T03:54:14.541Z,99989.34
2023-03-12T03:56:43.816Z,99993.31
2023-03-12T03:59:12.514Z,100011.84
2023-03-12T04:01:41.940Z,100006.41
2023-03-12T04:04:10.210Z,100012.72
2023-03-12T04:06:38.039Z,100025.41
2023-03-12T04:09:07.666Z,100031.06
2023-03-12T04:11:37.097Z,100033.97
2023-03-12T04:14:06.820Z,100025.06
2023-03-12T04:16:36.242Z,100007.94
2023-03-12T04:19:05.079Z,100001.25
2023-03-12T04:21:33.265Z,100006.28
2023-03-12T04:24:01.249Z,100007.47
2023-03-12T04:26:34.842Z,100000.63
2023-03-12T04:29:03.907Z,100027.38
2023-03-12T04:31:32.367Z,100025.53
2023-03-12T04:34:00.288Z,100048.25
2023-03-12T04:36:28.452Z,100040.69
2023-03-12T04:38:56.865Z,100040.69
2023-03-12T04:41:29.635Z,100013.22
2023-03-12T04:44:07.113Z,99964.50
2023-03-12T04:46:36.681Z,99948.91
2023-03-12T04:49:04.659Z,99958.44
2023-03-12T04:51:35.069Z,99967.03
2023-03-12T04:54:05.155Z,99975.66
2023-03-12T04:56:34.550Z,99980.91
2023-03-12T04:59:02.647Z,99988.84
2023-03-12T05:01:34.760Z,99976.56
2023-03-12T05:04:07.415Z,99970.31
2023-03-12T05:06:36.386Z,99966.44
2023-03-12T05:09:05.014Z,99983.38
2023-03-12T05:11:33.465Z,100007.56
2023-03-12T05:14:01.243Z,100011.75
2023-03-12T05:16:29.854Z,100014.81
2023-03-12T05:18:59.701Z,100006.44
2023-03-12T05:21:28.018Z,100010.97
2023-03-12T05:23:58.010Z,100020.44
2023-03-12T05:26:31.555Z,100002.59
2023-03-12T05:29:07.330Z,99995.41
2023-03-12T05:31:36.504Z,99981.34
2023-03-12T05:34:14.399Z,99972.47
2023-03-12T05:36:44.503Z,99933.94
2023-03-12T05:39:13.976Z,99905.06
2023-03-12T05:41:41.741Z,99851.75
2023-03-12T05:44:17.207Z,99764.63
2023-03-12T05:46:48.900Z,99679.91
2023-03-12T05:49:18.863Z,99560.63
2023-03-12T05:51:48.613Z,99486.25
2023-03-12T05:54:17.023Z,99415.59
2023-03-12T05:56:47.905Z,99285.50
2023-03-12T05:59:15.830Z,99172.41
2023-03-12T06:01:44.983Z,99112.19
2023-03-12T06:04:13.202Z,99063.91
2023-03-12T06:06:42.629Z,99043.00
2023-03-12T06:09:10.778Z,99039.16
2023-03-12T06:11:38.698Z,99051.03
2023-03-12T06:14:06.589Z,99049.97
2023-03-12T06:16:36.639Z,99042.69
2023-03-12T06:19:05.745Z,99025.81
2023-03-12T06:21:36.053Z,99021.88
2023-03-12T06:24:08.059Z,99016.13
2023-03-12T06:26:44.260Z,99024.97
2023-03-12T06:29:11.998Z,99021.59
2023-03-12T06:31:42.077Z,99011.22
2023-03-12T06:34:10.140Z,99011.91
2023-03-12T06:36:38.423Z,99013.03
2023-03-12T06:39:09.664Z,99012.69
2023-03-12T06:41:37.596Z,98999.44
2023-03-12T06:44:06.687Z,99012.50
2023-03-12T06:46:34.687Z,99007.53
2023-03-12T06:49:02.513Z,99000.72
2023-03-12T06:51:30.426Z,98982.63
2023-03-12T06:53:58.334Z,98968.59
2023-03-12T06:56:27.982Z,98966.28
2023-03-12T06:58:56.230Z,98948.00
2023-03-12T07:01:24.135Z,98932.06
2023-03-12T07:03:51.948Z,98938.97
2023-03-12T07:06:22.417Z,98950.47
2023-03-12T07:08:50.719Z,98975.56
2023-03-12T07:11:18.858Z,99027.72
2023-03-12T07:13:48.192Z,99046.88
2023-03-12T07:16:16.292Z,99101.69
2023-03-12T07:18:44.142Z,99147.00
2023-03-12T07:21:12.067Z,99182.53
2023-03-12T07:23:40.126Z,99156.84
2023-03-12T07:26:08.118Z,99162.19
2023-03-12T07:28:36.107Z,99089.97
2023-03-12T07:31:06.216Z,99059.34
2023-03-12T07:33:34.552Z,99030.22
2023-03-12T07:36:02.925Z,99006.25
2023-03-12T07:38:31.176Z,98981.31
2023-03-12T07:41:01.003Z,98979.69
2023-03-12T07:43:29.005Z,98968.94
2023-03-12T07:45:57.026Z,98952.75
2023-03-12T07:48:26.689Z,98935.56
2023-03-12T07:50:54.828Z,98945.03
2023-03-12T07:53:22.575Z,98934.78
2023-03-12T07:55:51.507Z,98912.94
2023-03-12T07:58:21.538Z,98930.38
2023-03-12T08:00:49.715Z,98917.25
2023-03-12T08:03:18.257Z,98911.09
2023-03-12T08:06:00.329Z,98896.56
2023-03-12T08:08:28.999Z,98896.94
2023-03-12T08:10:57.278Z,98903.81
2023-03-12T08:13:26.342Z,98894.88
2023-03-12T08:15:55.335Z,98903.88
2023-03-12T08:18:25.010Z,98875.09
2023-03-12T08:20:55.477Z,98885.06
2023-03-12T08:23:24.486Z,98858.16
2023-03-12T08:25:53.033Z,98870.31
2023-03-12T08:28:22.814Z,98858.72
2023-03-12T08:30:53.191Z,98853.44
2023-03-12T08:33:22.285Z,98849.03
2023-03-12T08:35:51.466Z,98846.38
2023-03-12T08:38:23.313Z,98846.16
2023-03-12T08:40:57.369Z,98848.94
2023-03-12T08:43:25.372Z,98831.88
2023-03-12T08:45:56.698Z,98808.66
2023-03-12T08:48:24.719Z,98809.78
2023-03-12T08:50:52.862Z,98802.38
2023-03-12T08:53:22.649Z,98813.78
2023-03-12T08:55:50.466Z,98789.03
2023-03-12T08:58:18.272Z,98783.91
2023-03-12T09:00:46.141Z,98778.47
2023-03-12T09:03:15.184Z,98744.94
2023-03-12T09:06:03.985Z,98733.59
2023-03-12T09:08:34.094Z,98724.09
2023-03-12T09:11:02.698Z,98707.81
2023-03-12T09:13:45.463Z,98662.59
2023-03-12T09:16:19.023Z,98613.97
2023-03-12T09:18:47.074Z,98581.78
2023-03-12T09:21:15.120Z,98533.47
2023-03-12T09:23:44.257Z,98499.28
2023-03-12T09:26:15.601Z,98446.50
2023-03-12T09:28:44.869Z,98411.41
2023-03-12T09:31:13.331Z,98368.94
2023-03-12T09:33:41.034Z,98319.00
2023-03-12T09:36:09.062Z,98284.91
2023-03-12T09:38:38.043Z,98221.72
2023-03-12T09:41:13.869Z,98138.97
2023-03-12T09:43:48.709Z,98058.66
2023-03-12T09:46:22.798Z,97999.38
2023-03-12T09:48:52.790Z,97899.84
2023-03-12T09:51:25.695Z,97794.88
2023-03-12T09:53:56.837Z,97762.88
2023-03-12T09:56:28.037Z,97727.25
2023-03-12T09:58:56.509Z,97627.78
2023-03-12T10:01:36.430Z,97564.97
2023-03-12T10:04:17.441Z,97507.28
2023-03-12T10:06:50.454Z,97452.47
2023-03-12T10:09:30.281Z,97421.78
2023-03-12T10:12:08.149Z,97389.97
2023-03-12T10:14:47.118Z,97382.28
2023-03-12T10:17:32.117Z,97376.47
2023-03-12T10:20:25.065Z,97177.81
2023-03-12T10:23:01.568Z,97258.41
2023-03-12T10:25:36.631Z,97269.53
2023-03-12T10:28:15.428Z,97241.88
2023-03-12T10:30:49.931Z,97265.16
2023-03-12T10:33:21.915Z,97233.84
2023-03-12T10:35:51.041Z,97221.63
2023-03-12T10:38:26.807Z,97349.47
2023-03-12T10:40:54.632Z,97602.53
2023-03-12T10:43:23.911Z,97584.25
2023-03-12T10:46:06.333Z,97578.50
2023-03-12T10:48:34.177Z,97579.91
2023-03-12T10:51:14.194Z,97599.84
2023-03-12T10:53:44.732Z,97611.94
2023-03-12T10:56:17.445Z,97644.69
2023-03-12T10:58:51.301Z,97651.59
2023-03-12T11:01:22.891Z,97674.66
2023-03-12T11:03:51.847Z,97704.56
2023-03-12T11:06:28.570Z,97730.31
2023-03-12T11:09:17.323Z,97723.84
2023-03-12T11:12:33.655Z,97748.50
2023-03-12T11:15:48.837Z,97801.75
2023-03-12T11:20:22.179Z,97829.13
2023-03-12T11:23:11.990Z,97883.44
2023-03-12T11:33:20.359Z,98026.38
2023-03-12T11:36:20.661Z,98058.72
2023-03-12T11:39:02.012Z,98088.03
2023-03-12T11:41:49.509Z,98121.97
2023-03-12T11:44:26.574Z,98165.22
2023-03-12T11:47:07.528Z,98222.44
2023-03-12T11:49:54.932Z,98258.03
2023-03-12T11:52:34.549Z,98254.75
2023-03-12T11:55:21.267Z,98240.91
2023-03-12T11:58:02.961Z,98243.84
2023-03-12T12:00:37.935Z,98252.81
2023-03-12T12:03:26.545Z,98278.31
2023-03-12T12:06:01.420Z,98287.63
2023-03-12T12:08:59.853Z,98326.94
2023-03-12T12:11:35.521Z,98368.13
2023-03-12T12:14:14.187Z,98407.06
2023-03-12T12:17:03.973Z,98427.53
2023-03-12T12:19:45.547Z,98493.66
2023-03-12T12:22:31.430Z,98546.88
2023-03-12T12:25:23.361Z,98583.69
2023-03-12T12:28:05.322Z,98650.22
2023-03-12T12:30:47.004Z,98724.31
2023-03-12T12:33:34.670Z,98799.16
2023-03-12T12:36:03.735Z,98877.56
2023-03-12T12:38:41.982Z,98952.53
2023-03-12T12:41:17.677Z,98998.22
2023-03-12T12:43:51.700Z,99031.78
2023-03-12T12:46:29.040Z,99059.22
2023-03-12T12:49:01.206Z,99113.72
2023-03-12T12:51:34.659Z,99153.72
2023-03-12T12:54:13.839Z,99202.00
2023-03-12T12:56:49.609Z,99204.22
2023-03-12T12:59:34.098Z,99231.22
2023-03-12T13:02:04.419Z,99268.53
2023-03-12T13:04:35.715Z,99296.13
2023-03-12T13:07:27.592Z,99296.88
2023-03-12T13:09:57.688Z,99305.75
2023-03-12T13:12:31.214Z,99320.97
2023-03-12T13:15:08.046Z,99291.28
2023-03-12T13:17:37.175Z,99233.31
2023-03-12T13:20:16.166Z,99149.88
2023-03-12T13:23:17.025Z,99079.19
2023-03-12T13:25:55.105Z,99007.59
2023-03-12T13:29:09.730Z,98914.06
2023-03-12T13:31:41.738Z,98666.69
2023-03-12T13:34:32.260Z,98342.75
2023-03-12T13:37:02.641Z,97979.13
2023-03-12T13:39:32.887Z,97581.34
2023-03-12T13:42:01.905Z,97692.44
2023-03-12T13:44:41.270Z,97413.47
2023-03-12T13:47:23.793Z,97194.13
2023-03-12T13:49:56.398Z,97119.81
2023-03-12T13:52:26.800Z,97095.63
2023-03-12T13:55:01.584Z,97092.59
2023-03-12T13:57:40.003Z,97054.09
2023-03-12T14:00:20.838Z,97052.91
2023-03-12T14:02:53.105Z,97041.28
2023-03-12T14:05:22.133Z,97014.88
2023-03-12T14:08:09.684Z,97028.34
2023-03-12T14:10:59.443Z,96996.00
2023-03-12T14:13:49.793Z,96966.56
2023-03-12T14:16:27.860Z,96941.94
2023-03-12T14:18:56.063Z,96918.06
2023-03-12T14:21:36.530Z,96861.81
2023-03-12T14:24:08.505Z,96854.13
2023-03-12T14:26:37.876Z,96824.22
2023-03-12T14:29:11.055Z,96789.59
2023-03-12T14:31:41.002Z,96746.47
2023-03-12T14:34:16.472Z,96700.66
2023-03-12T14:36:48.869Z,96674.66
2023-03-12T14:39:26.229Z,96659.44
2023-03-12T14:41:59.922Z,96608.41
2023-03-12T14:44:30.493Z,96567.06
2023-03-12T14:47:01.801Z,96550.25
2023-03-12T14:49:43.535Z,96520.38
2023-03-12T14:52:13.012Z,96508.59
2023-03-12T14:54:40.884Z,96512.34
2023-03-12T14:57:14.545Z,96474.81
2023-03-12T14:59:42.437Z,96472.53
2023-03-12T15:02:21.942Z,96454.25
2023-03-12T15:04:52.943Z,96455.94
2023-03-12T15:07:26.788Z,96442.66
2023-03-12T15:09:54.799Z,96452.00
2023-03-12T15:12:25.470Z,96453.66
2023-03-12T15:15:01.356Z,96454.72
2023-03-12T15:17:32.470Z,96468.00
2023-03-12T15:20:06.412Z,96477.09
2023-03-12T15:22:34.464Z,96485.88
2023-03-12T15:25:05.091Z,96526.44
2023-03-12T15:27:34.529Z,96559.19
2023-03-12T15:30:03.038Z,96583.97
2023-03-12T15:32:34.802Z,96635.13
2023-03-12T15:35:16.524Z,96662.91
2023-03-12T15:37:53.353Z,96682.38
2023-03-12T15:40:24.235Z,96709.97
2023-03-12T15:42:52.777Z,96737.53
2023-03-12T15:45:23.357Z,96779.16
2023-03-12T15:47:55.547Z,96826.44
2023-03-12T15:50:27.666Z,96848.06
2023-03-12T15:53:01.327Z,96900.97
2023-03-12T15:55:33.122Z,96947.25
2023-03-12T15:58:09.346Z,96972.88
2023-03-12T16:00:46.632Z,97008.91
2023-03-12T16:03:30.898Z,97011.38
2023-03-12T16:06:05.332Z,97062.75
2023-03-12T16:08:50.578Z,97095.28
2023-03-12T16:11:23.176Z,97120.31
2023-03-12T16:14:11.293Z,97159.88
2023-03-12T16:16:49.643Z,97190.66
2023-03-12T16:19:29.935Z,97204.81
2023-03-12T16:22:02.672Z,97256.25
2023-03-12T16:24:38.104Z,97292.84
2023-03-12T16:27:31.780Z,97330.88
2023-03-12T16:30:00.916Z,97370.75
2023-03-12T16:32:53.229Z,97440.03
2023-03-12T16:35:30.506Z,97506.41
2023-03-12T16:38:08.173Z,97543.59
2023-03-12T16:40:51.939Z,97565.63
2023-03-12T16:43:24.344Z,97604.28
2023-03-12T16:45:54.118Z,97630.72
2023-03-12T16:48:26.473Z,97660.97
2023-03-12T16:51:18.108Z,97640.84
2023-03-12T16:54:05.545Z,97669.38
2023-03-12T16:59:53.862Z,97675.44
2023-03-12T17:02:23.840Z,97707.50
2023-03-12T17:04:57.917Z,97691.81
2023-03-12T17:07:49.659Z,97667.06
2023-03-12T17:10:24.506Z,97644.09
2023-03-12T17:13:11.116Z,97663.66
2023-03-12T17:15:40.310Z,97681.88
2023-03-12T17:18:09.112Z,97675.16
2023-03-12T17:20:54.642Z,97657.28
2023-03-12T17:23:27.967Z,97660.84
2023-03-12T17:26:46.244Z,97647.84
2023-03-12T17:29:07.953Z,97643.47
2023-03-12T17:31:37.620Z,97649.16
2023-03-12T17:34:08.811Z,97663.03
2023-03-12T17:36:42.603Z,97653.91
2023-03-12T17:39:19.488Z,97676.66
2023-03-12T17:41:52.446Z,97663.16
2023-03-12T17:44:21.784Z,97673.28
2023-03-12T17:46:59.733Z,97680.53
2023-03-12T17:49:34.885Z,97665.72
2023-03-12T17:52:06.155Z,97654.91
2023-03-12T17:54:43.426Z,97677.00
2023-03-12T18:00:39.930Z,97666.75
2023-03-12T18:03:44.259Z,97648.84
2023-03-12T18:06:12.310Z,97669.59
2023-03-12T18:08:59.730Z,97674.47
2023-03-12T18:11:34.057Z,97649.56
2023-03-12T18:14:12.790Z,97663.69
2023-03-12T18:16:52.776Z,97661.28
2023-03-12T18:19:37.561Z,97632.84
2023-03-12T18:22:08.196Z,97659.63
2023-03-12T18:24:40.690Z,97653.75
2023-03-12T18:27:29.574Z,97649.03
2023-03-12T18:30:03.248Z,97654.91
2023-03-12T18:32:36.051Z,97658.47
2023-03-12T18:35:08.486Z,97654.09
2023-03-12T18:38:07.935Z,97666.88
2023-03-12T18:40:38.005Z,97675.97
2023-03-12T18:43:07.342Z,97658.59
2023-03-12T18:45:36.696Z,97660.81
2023-03-12T18:48:05.004Z,97653.06
2023-03-12T18:50:54.737Z,97638.06
2023-03-12T18:53:24.910Z,97645.19
2023-03-12T18:55:59.283Z,97653.88
2023-03-12T18:58:31.739Z,97635.75
2023-03-12T19:01:03.032Z,97631.38
2023-03-12T19:03:36.064Z,97643.63
2023-03-12T19:06:13.436Z,97629.81
2023-03-12T19:08:52.727Z,97616.22
2023-03-12T19:11:28.085Z,97636.22
2023-03-12T19:14:04.452Z,97616.50
2023-03-12T21:08:11.236Z,97341.88
2023-03-12T21:10:42.919Z,97370.47
2023-03-12T21:13:21.868Z,97380.59
2023-03-12T21:15:51.950Z,97400.78
2023-03-12T21:18:23.797Z,97408.16
2023-03-12T21:20:55.206Z,97414.56
2023-03-12T21:23:31.661Z,97434.25
2023-03-12T21:26:07.126Z,97437.44
2023-03-12T21:28:50.085Z,97441.50
2023-03-12T21:31:22.008Z,97463.69
2023-03-12T21:33:50.590Z,97463.34
2023-03-12T21:36:23.533Z,97488.25
2023-03-12T21:38:55.520Z,97470.44
2023-03-12T21:41:27.274Z,97513.47
2023-03-12T21:44:01.910Z,97484.41
2023-03-12T21:46:31.905Z,97503.06
2023-03-12T21:49:00.992Z,97506.09
2023-03-12T21:51:33.823Z,97511.31
2023-03-12T21:54:07.417Z,97527.63
2023-03-12T21:56:38.780Z,97535.69
2023-03-12T21:59:10.593Z,97554.38
2023-03-12T22:01:40.517Z,97569.69
2023-03-12T22:04:14.064Z,97550.84
2023-03-12T22:06:44.598Z,97575.75
2023-03-12T22:09:14.000Z,97576.41
2023-03-12T22:11:48.645Z,97582.78
2023-03-12T22:14:16.554Z,97585.97
2023-03-12T22:16:47.256Z,97565.47
2023-03-12T22:19:15.343Z,97567.00
2023-03-12T22:21:43.385Z,97570.00
2023-03-12T22:24:12.540Z,97575.38
2023-03-12T22:26:41.746Z,97580.94
2023-03-12T22:29:10.093Z,97576.91
2023-03-12T22:31:37.793Z,97558.94
2023-03-12T22:34:05.643Z,97573.06
2023-03-12T22:36:33.626Z,97570.69
2023-03-12T22:39:01.360Z,97577.25
2023-03-12T22:41:30.444Z,97569.69
2023-03-12T22:44:03.708Z,97566.47
2023-03-12T22:46:32.172Z,97550.84
2023-03-12T22:49:01.401Z,97557.94
2023-03-12T22:51:30.867Z,97554.22
2023-03-12T22:53:58.902Z,97554.56
2023-03-12T22:56:27.147Z,97569.00
2023-03-12T22:58:56.327Z,97557.06
2023-03-12T23:01:26.296Z,97561.28
2023-03-12T23:03:54.128Z,97557.75
2023-03-12T23:06:23.599Z,97567.69
2023-03-12T23:08:52.356Z,97568.34
2023-03-12T23:11:20.888Z,97571.72
2023-03-12T23:13:49.792Z,97554.56
2023-03-12T23:16:20.611Z,97557.94
2023-03-12T23:18:50.506Z,97543.13
2023-03-12T23:21:20.352Z,97540.25
2023-03-12T23:23:48.770Z,97550.66
2023-03-12T23:26:19.047Z,97537.75
2023-03-12T23:28:47.561Z,97538.91
2023-03-12T23:31:17.273Z,97531.31
2023-03-12T23:33:45.975Z,97532.66
2023-03-12T23:36:17.153Z,97530.50
2023-03-12T23:38:45.798Z,97538.72
2023-03-12T23:41:15.648Z,97527.28
2023-03-12T23:43:43.394Z,97531.50
2023-03-12T23:46:12.869Z,97525.44
2023-03-12T23:48:41.731Z,97533.53
2023-03-12T23:51:10.876Z,97516.88
2023-03-12T23:53:41.482Z,97510.47
2023-03-12T23:56:11.487Z,97489.28
2023-03-12T23:58:39.541Z,97499.03
